Time;durP1;ratioP1;P1;durP2;ratioP2;P2;SDS_P1;SDS_P2;PMS_P1;PMS_P2;Temp;Humidity;BMP_temperature;BMP_pressure;BME280_temperature;BME280_humidity;BME280_pressure;Samples;Min_cycle;Max_cycle;Signal;HPM_P1;HPM_P2
2023/10/16 00:01:38;;;;;;;3.53;1.42;;;;;;;4.25;64.46;100717.34;10425256;28;20041;-61
2023/10/16 00:06:40;;;;;;;1.77;1.40;;;;;;;4.24;64.27;100713.06;10424549;28;20041;-61
2023/10/16 00:11:42;;;;;;;1.80;1.17;;;;;;;4.19;64.43;100714.06;10424415;28;20283;-60
2023/10/16 00:16:45;;;;;;;1.63;1.02;;;;;;;4.15;64.54;100707.25;10410165;28;20049;-60
2023/10/16 00:21:47;;;;;;;2.50;1.40;;;;;;;4.04;64.34;100707.47;10427156;28;20053;-60
2023/10/16 00:26:49;;;;;;;4.78;1.30;;;;;;;3.99;64.57;100698.91;10428057;28;20057;-60
2023/10/16 00:31:51;;;;;;;1.38;1.10;;;;;;;3.95;64.73;100691.25;10403954;28;20045;-61
2023/10/16 00:36:54;;;;;;;1.92;1.30;;;;;;;3.90;64.95;100693.94;10423793;28;20041;-61
2023/10/16 00:41:57;;;;;;;2.40;1.30;;;;;;;3.83;64.94;100689.75;10424405;28;20041;-60
2023/10/16 00:47:09;;;;;;;3.10;1.25;;;;;;;3.88;64.84;100692.28;10422502;28;20183;-60
2023/10/16 00:52:14;;;;;;;6.57;1.58;;;;;;;3.79;64.91;100690.69;10423665;28;20045;-61
2023/10/16 00:57:17;;;;;;;2.22;1.30;;;;;;;3.81;64.79;100688.91;10380342;28;20435;-61
2023/10/16 01:02:26;;;;;;;2.05;1.10;;;;;;;3.81;64.94;100694.94;10400373;28;20048;-61
2023/10/16 01:07:29;;;;;;;2.00;1.20;;;;;;;3.86;64.78;100685.38;10415306;28;20435;-61
2023/10/16 01:12:30;;;;;;;1.65;1.20;;;;;;;3.89;64.44;100692.22;10416177;28;20045;-60
2023/10/16 01:17:35;;;;;;;3.08;1.45;;;;;;;3.84;64.57;100681.16;10412875;28;20301;-60
2023/10/16 01:22:37;;;;;;;2.80;1.30;;;;;;;3.81;64.66;100683.75;10429142;28;20434;-60
2023/10/16 01:27:39;;;;;;;1.67;1.30;;;;;;;3.80;64.59;100675.13;10416708;28;20049;-61
2023/10/16 01:32:41;;;;;;;1.92;1.20;;;;;;;3.85;64.66;100677.66;10396911;28;20303;-60
2023/10/16 01:37:46;;;;;;;1.42;1.10;;;;;;;3.90;64.64;100675.84;10413472;28;20041;-61
2023/10/16 01:42:53;;;;;;;25.52;2.88;;;;;;;3.91;64.62;100674.94;10431771;28;20489;-61
2023/10/16 01:47:56;;;;;;;2.72;1.65;;;;;;;3.83;64.56;100679.38;10380333;28;20041;-61
2023/10/16 01:52:59;;;;;;;30.90;3.88;;;;;;;3.75;64.64;100687.31;10395232;28;20076;-61
2023/10/16 01:58:03;;;;;;;25.80;2.47;;;;;;;3.83;64.51;100684.56;10387195;28;20524;-60
2023/10/16 02:03:08;;;;;;;1.90;1.35;;;;;;;3.79;64.55;100681.19;10406218;28;20492;-60
2023/10/16 02:08:15;;;;;;;25.30;2.08;;;;;;;3.85;65.09;100683.69;10418331;28;20041;-61
2023/10/16 02:13:17;;;;;;;40.15;4.10;;;;;;;3.77;64.42;100684.69;10420306;28;20052;-61
2023/10/16 02:18:22;;;;;;;21.90;2.45;;;;;;;3.36;64.64;100674.28;10418774;28;20056;-60
2023/10/16 02:23:29;;;;;;;6.93;1.65;;;;;;;3.30;64.64;100677.84;10420369;28;20317;-60
2023/10/16 02:28:36;;;;;;;17.48;3.20;;;;;;;3.42;65.14;100671.59;10421274;28;20048;-60
2023/10/16 02:33:38;;;;;;;69.00;3.55;;;;;;;3.30;64.72;100666.66;10404221;28;20045;-60
2023/10/16 02:38:44;;;;;;;17.65;3.03;;;;;;;3.34;65.04;100652.78;10434313;28;20045;-61
2023/10/16 02:43:47;;;;;;;48.78;4.55;;;;;;;3.42;64.84;100656.94;10437996;28;20413;-61
2023/10/16 02:48:52;;;;;;;33.22;2.30;;;;;;;3.54;64.87;100659.28;10435345;28;20310;-61
2023/10/16 02:53:54;;;;;;;27.70;2.45;;;;;;;3.70;65.01;100662.44;10418809;28;20118;-61
2023/10/16 02:58:56;;;;;;;52.47;3.40;;;;;;;3.75;64.90;100665.75;10414271;28;20049;-60
2023/10/16 03:03:58;;;;;;;3.38;1.38;;;;;;;3.73;64.78;100662.34;10433096;28;20055;-61
2023/10/16 03:09:15;;;;;;;11.40;1.30;;;;;;;3.74;64.63;100669.25;10428222;28;20049;-61
2023/10/16 03:14:21;;;;;;;23.13;2.67;;;;;;;3.69;64.32;100665.88;10411182;28;20068;-60
2023/10/16 03:19:23;;;;;;;5.47;1.30;;;;;;;3.70;64.59;100662.44;10426679;28;20449;-61
2023/10/16 03:24:26;;;;;;;7.75;1.30;;;;;;;3.69;64.34;100665.88;10424916;28;20041;-61
2023/10/16 03:29:29;;;;;;;32.67;2.55;;;;;;;3.65;64.16;100664.25;10410405;28;20396;-60
2023/10/16 03:34:31;;;;;;;2.90;1.45;;;;;;;3.71;64.31;100670.16;10428048;28;20130;-61
2023/10/16 03:39:33;;;;;;;2.53;1.15;;;;;;;3.79;64.41;100677.75;10427712;28;20424;-61
2023/10/16 03:44:39;;;;;;;1.17;0.82;;;;;;;3.92;64.33;100673.22;10427224;28;20049;-61
2023/10/16 03:49:41;;;;;;;9.30;1.35;;;;;;;3.94;64.34;100669.72;10427108;28;20061;-61
2023/10/16 03:54:43;;;;;;;7.20;1.33;;;;;;;3.97;64.03;100667.03;10407426;28;20049;-61
2023/10/16 03:59:47;;;;;;;2.13;1.25;;;;;;;3.98;64.04;100668.78;10409770;28;20067;-61
2023/10/16 04:04:53;;;;;;;1.67;1.23;;;;;;;3.93;64.46;100662.81;10425340;28;20045;-61
2023/10/16 04:10:11;;;;;;;1.67;1.10;;;;;;;4.16;64.13;100659.75;10411705;28;20529;-61
2023/10/16 04:15:23;;;;;;;1.67;1.20;;;;;;;4.16;64.00;100658.00;10406829;28;20045;-61
2023/10/16 04:20:44;;;;;;;2.00;1.30;;;;;;;4.20;64.18;100658.78;10405433;28;20049;-61
2023/10/16 04:26:28;;;;;;;2.17;1.15;;;;;;;4.15;63.99;100655.47;10426151;28;20653;-61
2023/10/16 04:31:31;;;;;;;2.88;1.17;;;;;;;4.15;63.89;100651.13;10424071;28;20049;-61
2023/10/16 04:42:49;;;;;;;1.33;1.10;;;;;;;4.27;63.74;100644.84;10426573;28;20049;-61
2023/10/16 04:47:26;;;;;;;2.67;1.40;;;;;;;4.41;63.79;100640.19;10422895;28;20195;-61
2023/10/16 04:57:53;;;;;;;2.27;1.13;;;;;;;4.59;63.75;100631.97;10423859;28;20211;-61
2023/10/16 05:03:22;;;;;;;3.53;1.42;;;;;;;4.76;63.49;100621.19;10406855;28;20471;-61
2023/10/16 05:13:55;;;;;;;2.40;1.40;;;;;;;4.77;63.45;100621.16;10423115;28;20457;-61
2023/10/16 05:19:03;;;;;;;2.50;1.23;;;;;;;4.69;63.46;100612.72;10423304;28;20053;-61
2023/10/16 06:17:42;;;;;;;7.77;2.63;;;;;;;5.29;63.50;100618.88;10387580;28;20053;-61
2023/10/16 06:22:50;;;;;;;6.75;2.65;;;;;;;5.36;63.57;100617.84;10421970;28;20493;-61
2023/10/16 06:27:52;;;;;;;6.03;2.70;;;;;;;5.46;63.43;100629.66;10420247;28;20057;-61
2023/10/16 06:32:54;;;;;;;5.53;2.50;;;;;;;5.62;63.03;100635.25;10424074;28;20057;-60
2023/10/16 06:37:56;;;;;;;5.00;2.47;;;;;;;5.65;62.94;100632.59;10419784;28;20049;-61
2023/10/16 06:43:10;;;;;;;5.50;2.72;;;;;;;5.74;62.99;100640.09;10422370;28;20053;-61
2023/10/16 06:48:16;;;;;;;9.45;3.75;;;;;;;5.86;62.77;100638.91;10405114;28;20047;-61
2023/10/16 06:53:18;;;;;;;6.80;2.67;;;;;;;6.04;62.60;100644.38;10424203;28;20045;-61
2023/10/16 06:58:21;;;;;;;4.65;2.47;;;;;;;6.14;62.44;100652.78;10427899;28;20520;-61
2023/10/16 07:03:24;;;;;;;8.13;2.70;;;;;;;6.25;62.48;100632.53;10430019;28;20048;-61
2023/10/16 07:08:26;;;;;;;7.38;3.42;;;;;;;6.26;62.30;100644.63;10428647;28;20123;-61
2023/10/16 07:13:31;;;;;;;18.30;3.05;;;;;;;6.21;62.47;100646.47;10394809;28;20044;-61
2023/10/16 07:18:34;;;;;;;6.70;2.65;;;;;;;6.37;62.58;100641.72;10409023;28;20045;-61
2023/10/16 07:23:38;;;;;;;6.45;2.90;;;;;;;6.66;62.30;100639.88;10429273;28;20098;-61
2023/10/16 07:28:40;;;;;;;9.23;3.08;;;;;;;6.90;61.88;100649.47;10421650;28;20167;-60
2023/10/16 07:33:50;;;;;;;8.82;3.72;;;;;;;7.10;61.69;100641.81;10403881;28;20686;-61
2023/10/16 07:38:54;;;;;;;10.32;3.92;;;;;;;7.29;61.45;100636.84;10421763;28;20053;-60
2023/10/16 07:43:56;;;;;;;9.90;4.15;;;;;;;7.51;61.08;100640.38;10407499;28;20049;-61
2023/10/16 07:49:15;;;;;;;11.75;3.92;;;;;;;7.66;60.73;100634.63;10422418;28;20657;-61
2023/10/16 07:54:17;;;;;;;17.20;3.70;;;;;;;7.76;60.38;100635.13;10388841;28;20041;-61
2023/10/16 07:59:19;;;;;;;8.18;3.40;;;;;;;7.78;59.92;100634.16;10422596;28;20452;-61
2023/10/16 08:14:31;;;;;;;4.53;2.55;;;;;;;7.59;59.71;100653.13;10422853;28;20467;-60
2023/10/16 08:19:34;;;;;;;5.47;3.20;;;;;;;7.51;59.71;100645.56;10420482;28;20048;-61
2023/10/16 08:24:43;;;;;;;7.32;2.83;;;;;;;7.38;59.63;100646.09;10420383;28;20037;-61
2023/10/16 08:29:58;;;;;;;7.05;3.35;;;;;;;7.53;59.70;100655.97;10416856;28;20044;-60
2023/10/16 08:35:01;;;;;;;10.00;3.58;;;;;;;7.65;59.63;100640.72;10417095;28;20541;-60
2023/10/16 08:40:19;;;;;;;7.20;3.08;;;;;;;7.55;59.23;100649.78;10420827;28;20041;-60
2023/10/16 08:45:25;;;;;;;6.35;3.55;;;;;;;7.25;59.69;100650.00;10423155;28;20049;-60
2023/10/16 08:50:44;;;;;;;9.40;3.33;;;;;;;7.22;60.24;100650.97;10395218;28;20056;-60
2023/10/16 08:55:46;;;;;;;11.75;4.18;;;;;;;7.61;59.82;100649.56;10420476;28;20450;-60
2023/10/16 09:00:49;;;;;;;6.95;3.35;;;;;;;7.60;59.44;100655.69;10419790;28;20300;-60
2023/10/16 09:05:52;;;;;;;7.80;3.10;;;;;;;7.52;59.61;100649.91;10421126;28;20060;-60
2023/10/16 09:10:54;;;;;;;7.15;3.58;;;;;;;7.43;59.51;100645.00;10401501;28;20052;-61
2023/10/16 09:15:57;;;;;;;5.95;3.00;;;;;;;7.62;59.21;100650.41;10418824;28;20342;-60
2023/10/16 09:21:00;;;;;;;8.68;3.38;;;;;;;7.86;58.76;100652.97;10418773;28;20111;-60
2023/10/16 09:26:06;;;;;;;6.85;3.53;;;;;;;7.95;58.68;100646.56;10416734;28;20047;-60
2023/10/16 09:31:08;;;;;;;8.15;3.20;;;;;;;7.92;58.77;100646.66;10399723;28;20586;-60
2023/10/16 09:36:18;;;;;;;6.35;3.20;;;;;;;8.13;58.62;100650.25;10399650;28;20041;-60
2023/10/16 09:46:52;;;;;;;6.57;3.40;;;;;;;8.45;58.07;100635.06;10416079;28;20037;-60
2023/10/16 09:51:58;;;;;;;7.18;3.45;;;;;;;8.61;57.57;100638.75;10415608;28;20049;-60
2023/10/16 09:57:13;;;;;;;5.35;3.17;;;;;;;8.71;57.42;100639.22;10435277;28;20128;-60
2023/10/16 10:02:18;;;;;;;5.40;2.78;;;;;;;8.90;56.95;100639.31;10417641;28;20049;-60
2023/10/16 10:07:34;;;;;;;5.88;3.42;;;;;;;8.73;56.94;100640.84;10417651;28;20044;-60
2023/10/16 10:12:47;;;;;;;6.90;3.13;;;;;;;8.83;56.90;100638.72;10413538;28;20049;-60
2023/10/16 10:17:54;;;;;;;4.75;2.67;;;;;;;9.01;56.87;100637.97;10420050;28;20362;-60
2023/10/16 10:23:04;;;;;;;6.93;2.72;;;;;;;9.36;56.56;100626.84;10415597;28;20134;-60
2023/10/16 10:28:32;;;;;;;8.93;3.47;;;;;;;9.72;54.34;100629.63;10420497;28;20073;-60
2023/10/16 10:33:37;;;;;;;6.35;3.15;;;;;;;9.48;55.73;100625.47;10401338;28;20041;-60
2023/10/16 10:38:40;;;;;;;6.18;2.95;;;;;;;9.77;55.40;100613.75;10421642;28;20037;-60
2023/10/16 10:43:48;;;;;;;7.90;3.20;;;;;;;9.72;55.41;100621.78;10408308;28;20076;-60
2023/10/16 10:48:54;;;;;;;5.88;3.03;;;;;;;9.73;55.21;100605.19;10437543;28;20574;-60
2023/10/16 10:53:58;;;;;;;6.53;3.25;;;;;;;9.83;54.66;100596.00;10418345;28;20605;-60
2023/10/16 10:59:08;;;;;;;6.22;2.70;;;;;;;9.61;54.29;100593.50;10422364;28;20064;-60
2023/10/16 11:04:15;;;;;;;12.17;3.77;;;;;;;9.12;55.00;100591.38;10425682;28;20045;-60
2023/10/16 11:09:19;;;;;;;9.13;4.20;;;;;;;9.13;55.31;100581.78;10425082;28;20239;-60
2023/10/16 11:14:38;;;;;;;5.40;2.72;;;;;;;9.47;54.84;100571.53;10423154;28;20048;-60
2023/10/16 11:19:49;;;;;;;5.32;2.75;;;;;;;9.74;54.83;100564.25;10400150;28;20052;-60
2023/10/16 11:24:51;;;;;;;6.20;2.50;;;;;;;9.66;54.58;100556.78;10418042;28;20515;-60
2023/10/16 11:29:54;;;;;;;5.65;2.85;;;;;;;9.11;54.21;100561.00;10421528;28;20041;-60
2023/10/16 11:35:13;;;;;;;5.10;2.50;;;;;;;9.04;55.38;100543.88;10423677;28;20073;-60
2023/10/16 11:40:31;;;;;;;5.32;2.20;;;;;;;9.01;54.83;100538.81;10399977;28;20571;-60
2023/10/16 11:45:33;;;;;;;5.93;2.45;;;;;;;9.10;55.47;100530.56;10423306;28;20049;-60
2023/10/16 11:50:39;;;;;;;4.32;2.10;;;;;;;9.08;54.55;100527.19;10419299;28;20433;-60
2023/10/16 11:55:42;;;;;;;6.07;2.40;;;;;;;9.11;54.95;100524.47;10389006;28;20041;-60
2023/10/16 12:00:54;;;;;;;8.43;2.80;;;;;;;9.35;54.95;100502.47;10419491;28;20139;-60
2023/10/16 12:05:56;;;;;;;4.68;2.00;;;;;;;9.70;54.44;100502.63;10405285;28;20049;-60
2023/10/16 12:11:01;;;;;;;6.55;2.55;;;;;;;9.72;53.98;100492.97;10420183;28;20470;-60
2023/10/16 12:16:05;;;;;;;5.45;1.90;;;;;;;9.74;53.72;100480.66;10404453;28;20520;-60
2023/10/16 12:21:16;;;;;;;6.00;2.53;;;;;;;9.92;53.37;100487.63;10420173;28;20653;-60
2023/10/16 12:26:19;;;;;;;6.55;2.60;;;;;;;10.13;53.02;100474.38;10419686;28;20041;-60
2023/10/16 12:31:21;;;;;;;5.65;2.50;;;;;;;10.31;52.86;100468.22;10417104;28;20339;-60
2023/10/16 12:36:25;;;;;;;5.20;2.30;;;;;;;10.46;52.66;100453.53;10400036;28;20052;-60
2023/10/16 12:41:27;;;;;;;4.22;2.10;;;;;;;10.46;52.45;100445.69;10411201;28;20049;-60
2023/10/16 12:46:31;;;;;;;4.75;2.00;;;;;;;10.73;52.55;100446.00;10419024;28;20876;-60
2023/10/16 12:51:38;;;;;;;3.88;2.00;;;;;;;10.74;51.79;100435.50;10415112;28;20627;-60
2023/10/16 12:56:43;;;;;;;2.85;1.77;;;;;;;10.71;51.15;100440.03;10399074;28;20168;-60
2023/10/16 13:01:49;;;;;;;2.97;1.83;;;;;;;10.75;51.80;100431.94;10419160;28;20053;-60
2023/10/16 13:06:51;;;;;;;4.85;1.75;;;;;;;10.96;51.22;100420.34;10396532;28;20040;-60
2023/10/16 13:11:55;;;;;;;2.67;1.55;;;;;;;10.89;50.69;100426.81;10417886;28;20053;-60
2023/10/16 13:16:58;;;;;;;2.58;1.63;;;;;;;10.96;50.39;100414.25;10416344;28;20079;-60
2023/10/16 13:22:10;;;;;;;4.13;2.15;;;;;;;11.21;50.23;100410.25;10430300;28;20041;-60
2023/10/16 13:27:16;;;;;;;5.57;1.95;;;;;;;11.20;49.98;100403.34;10405253;28;20477;-60
2023/10/16 13:32:18;;;;;;;3.75;2.10;;;;;;;11.13;50.29;100399.34;10380608;28;20052;-60
2023/10/16 13:37:20;;;;;;;3.95;2.30;;;;;;;11.50;50.04;100406.03;10419590;28;20052;-60
2023/10/16 13:42:22;;;;;;;7.00;2.20;;;;;;;11.63;49.35;100406.19;10398250;28;20508;-60
2023/10/16 13:47:24;;;;;;;4.00;1.67;;;;;;;12.02;49.53;100407.38;10420233;28;20524;-60
2023/10/16 13:52:26;;;;;;;4.75;1.70;;;;;;;12.17;49.24;100402.19;10402758;28;20056;-61
2023/10/16 13:57:28;;;;;;;2.88;1.63;;;;;;;12.17;48.96;100399.56;10421650;28;20037;-61
2023/10/16 14:02:36;;;;;;;3.67;1.60;;;;;;;11.94;48.27;100395.66;10420056;28;20053;-61
2023/10/16 14:07:38;;;;;;;2.83;1.42;;;;;;;11.78;48.11;100386.97;10410571;28;20049;-61
2023/10/16 14:12:41;;;;;;;1.55;1.08;;;;;;;11.76;47.64;100381.00;10422849;28;20045;-60
2023/10/16 14:17:44;;;;;;;3.25;1.65;;;;;;;11.68;47.74;100380.59;10430051;28;20052;-60
2023/10/16 14:22:51;;;;;;;3.25;1.30;;;;;;;11.72;46.41;100379.47;10404477;28;20057;-60
2023/10/16 14:27:55;;;;;;;3.28;1.80;;;;;;;11.68;47.56;100377.97;10403935;28;20590;-60
2023/10/16 14:32:57;;;;;;;2.10;1.20;;;;;;;11.60;47.24;100367.91;10422762;28;20059;-60
2023/10/16 14:37:59;;;;;;;3.67;1.13;;;;;;;11.57;47.25;100362.00;10426264;28;20041;-60
2023/10/16 14:43:03;;;;;;;2.00;0.93;;;;;;;11.40;47.44;100368.19;10393303;28;20210;-60
2023/10/16 14:48:09;;;;;;;1.98;1.08;;;;;;;11.45;47.74;100360.94;10408546;28;20103;-60
2023/10/16 14:53:12;;;;;;;3.65;1.20;;;;;;;11.39;47.36;100361.28;10424152;28;20332;-60
2023/10/16 14:58:16;;;;;;;2.20;1.30;;;;;;;11.41;47.62;100353.31;10426990;28;20060;-59
2023/10/16 15:03:24;;;;;;;2.25;1.10;;;;;;;11.45;47.97;100349.59;10405838;28;20095;-59
2023/10/16 15:08:27;;;;;;;1.67;1.00;;;;;;;11.35;47.90;100356.28;10410987;28;20417;-59
2023/10/16 15:13:29;;;;;;;1.92;0.98;;;;;;;11.32;48.12;100352.91;10422504;28;20124;-60
2023/10/16 15:18:32;;;;;;;1.80;1.05;;;;;;;11.24;48.50;100341.16;10423286;28;20488;-60
2023/10/16 15:23:34;;;;;;;2.60;1.50;;;;;;;11.18;48.98;100341.50;10424222;28;20049;-59
2023/10/16 15:28:36;;;;;;;2.53;1.00;;;;;;;11.12;49.24;100337.47;10420195;28;20047;-60
2023/10/16 15:33:43;;;;;;;5.85;1.95;;;;;;;10.83;49.53;100330.34;10421015;28;20815;-59
2023/10/16 15:38:47;;;;;;;1.67;1.10;;;;;;;10.82;49.90;100323.44;10421109;28;20472;-60
2023/10/16 15:43:51;;;;;;;1.70;1.05;;;;;;;10.60;50.26;100320.28;10425771;28;20564;-60
2023/10/16 15:48:57;;;;;;;3.15;1.05;;;;;;;10.48;50.62;100324.38;10405219;28;20402;-60
2023/10/16 15:53:59;;;;;;;2.67;1.20;;;;;;;10.44;50.73;100322.00;10425493;28;20083;-59
2023/10/16 15:59:01;;;;;;;4.32;1.30;;;;;;;10.30;50.87;100314.03;10435842;28;20698;-60
2023/10/16 16:04:05;;;;;;;5.05;1.48;;;;;;;10.23;51.23;100315.31;10425246;28;20519;-59
2023/10/16 16:09:12;;;;;;;1.75;1.20;;;;;;;10.18;51.43;100322.53;10420576;28;20044;-60
2023/10/16 16:14:14;;;;;;;4.00;1.30;;;;;;;10.01;52.32;100325.19;10425700;28;20043;-59
2023/10/16 16:19:22;;;;;;;1.92;1.13;;;;;;;9.92;52.24;100323.88;10419345;28;20210;-59
2023/10/16 16:24:25;;;;;;;2.17;1.30;;;;;;;9.75;52.61;100331.72;10390106;28;20051;-60
2023/10/16 16:29:27;;;;;;;2.63;1.60;;;;;;;9.65;52.76;100335.66;10422113;28;20056;-60
2023/10/16 16:34:31;;;;;;;2.83;1.30;;;;;;;9.54;53.21;100333.56;10397130;28;20489;-59
2023/10/16 16:39:33;;;;;;;5.20;2.05;;;;;;;9.40;53.94;100336.00;10421524;28;20044;-59
2023/10/16 16:44:35;;;;;;;1.90;1.30;;;;;;;9.30;54.53;100341.78;10423834;28;20045;-59
2023/10/16 16:49:37;;;;;;;3.10;1.80;;;;;;;9.17;54.81;100349.34;10397371;28;20194;-59
2023/10/16 16:54:39;;;;;;;3.38;1.70;;;;;;;9.03;55.44;100356.13;10423107;28;20045;-59
2023/10/16 16:59:41;;;;;;;4.78;1.80;;;;;;;8.80;55.79;100355.44;10397953;28;20126;-60
2023/10/16 17:04:44;;;;;;;2.22;1.27;;;;;;;8.72;56.27;100362.75;10404563;28;20334;-60
2023/10/16 17:09:46;;;;;;;2.88;1.50;;;;;;;8.67;56.66;100367.31;10419696;28;20886;-59
2023/10/16 17:14:50;;;;;;;2.63;1.50;;;;;;;8.56;56.75;100372.19;10417066;28;20570;-60
2023/10/16 17:19:53;;;;;;;3.85;1.58;;;;;;;8.47;56.90;100374.31;10400559;28;20037;-59
2023/10/16 17:24:55;;;;;;;2.80;1.52;;;;;;;8.37;57.28;100383.47;10401024;28;20289;-59
2023/10/16 17:29:57;;;;;;;3.38;1.77;;;;;;;8.33;57.42;100389.72;10398581;28;20534;-59
2023/10/16 17:35:00;;;;;;;5.45;1.77;;;;;;;8.26;57.90;100388.31;10398263;28;20041;-59
2023/10/16 17:40:06;;;;;;;6.47;3.10;;;;;;;8.17;58.26;100389.53;10416493;28;20119;-59
2023/10/16 17:45:09;;;;;;;3.30;1.88;;;;;;;8.09;58.32;100383.78;10430073;28;20507;-59
2023/10/16 17:50:12;;;;;;;15.52;2.70;;;;;;;7.89;58.58;100388.97;10431797;28;20527;-59
2023/10/16 17:55:14;;;;;;;3.53;1.52;;;;;;;7.83;58.94;100382.25;10370077;28;20606;-59
2023/10/16 18:00:16;;;;;;;2.72;1.75;;;;;;;7.86;59.11;100381.28;10414780;28;20417;-59
2023/10/16 18:05:19;;;;;;;5.32;2.20;;;;;;;7.84;58.92;100393.53;10398294;28;20063;-59
2023/10/16 18:10:22;;;;;;;5.15;1.48;;;;;;;7.79;58.94;100401.50;10417481;28;20496;-59
2023/10/16 18:15:25;;;;;;;4.03;2.20;;;;;;;7.71;59.13;100406.19;10420335;28;20355;-59
2023/10/16 18:20:31;;;;;;;3.60;2.08;;;;;;;7.56;59.60;100390.34;10420206;28;20048;-60
2023/10/16 18:25:34;;;;;;;5.72;2.20;;;;;;;7.17;60.10;100377.16;10418335;28;20045;-59
2023/10/16 18:30:37;;;;;;;3.20;1.90;;;;;;;7.19;60.38;100378.78;10410368;28;20496;-59
2023/10/16 18:35:38;;;;;;;7.15;1.98;;;;;;;7.22;60.27;100380.44;10419248;28;20425;-60
2023/10/16 18:40:42;;;;;;;4.95;2.10;;;;;;;7.07;60.25;100375.81;10416103;28;20045;-59
2023/10/16 18:45:44;;;;;;;2.83;1.52;;;;;;;6.92;60.71;100381.59;10419767;28;20122;-59
2023/10/16 18:50:46;;;;;;;3.28;1.80;;;;;;;6.91;60.83;100359.97;10412918;28;20172;-59
2023/10/16 18:55:52;;;;;;;3.10;1.80;;;;;;;6.80;60.81;100361.25;10429437;28;20130;-59
2023/10/16 19:01:03;;;;;;;3.45;1.90;;;;;;;6.75;61.66;100366.63;10424682;28;20501;-59
2023/10/16 19:06:06;;;;;;;3.90;2.10;;;;;;;6.73;61.12;100378.00;10427227;28;20517;-59
2023/10/16 19:11:09;;;;;;;6.18;2.20;;;;;;;6.71;61.22;100372.00;10430914;28;20095;-60
2023/10/16 19:16:11;;;;;;;8.88;2.03;;;;;;;6.83;61.41;100379.34;10430086;28;20049;-59
2023/10/16 19:21:13;;;;;;;5.10;1.77;;;;;;;6.88;61.20;100391.25;10428358;28;20643;-59
2023/10/16 19:26:16;;;;;;;6.80;2.42;;;;;;;6.81;61.41;100381.16;10430065;28;20412;-59
2023/10/16 19:31:19;;;;;;;8.73;3.92;;;;;;;6.63;61.54;100371.44;10430031;28;20626;-59
2023/10/16 19:36:22;;;;;;;8.93;3.80;;;;;;;6.59;61.75;100370.72;10441792;28;20094;-59
2023/10/16 19:41:31;;;;;;;6.47;3.42;;;;;;;6.60;61.80;100375.00;10424783;28;20044;-60
2023/10/16 19:46:33;;;;;;;7.88;3.53;;;;;;;6.61;61.80;100386.25;10401445;28;20045;-59
2023/10/16 19:51:37;;;;;;;12.70;3.70;;;;;;;6.61;61.67;100381.03;10420924;28;20181;-59
2023/10/16 19:56:39;;;;;;;5.05;2.72;;;;;;;6.48;61.99;100371.97;10410934;28;20497;-59
2023/10/16 20:01:41;;;;;;;5.55;2.83;;;;;;;6.54;62.10;100380.41;10419370;28;20052;-59
2023/10/16 20:06:43;;;;;;;5.30;2.40;;;;;;;6.50;62.07;100393.56;10405975;28;20053;-59
2023/10/16 20:11:45;;;;;;;8.68;2.45;;;;;;;6.50;62.12;100391.81;10415491;28;20048;-59
2023/10/16 20:16:47;;;;;;;5.50;2.97;;;;;;;6.29;62.39;100388.22;10406932;28;20519;-59
2023/10/16 20:21:53;;;;;;;8.55;3.33;;;;;;;6.16;63.00;100391.28;10424267;28;20051;-59
2023/10/16 20:26:57;;;;;;;5.72;3.10;;;;;;;6.20;62.86;100391.13;10417437;28;20041;-59
2023/10/16 20:31:59;;;;;;;6.70;3.20;;;;;;;6.18;62.85;100418.91;10397345;28;20060;-59
2023/10/16 20:37:03;;;;;;;4.57;2.65;;;;;;;6.05;62.77;100396.84;10433237;28;20394;-59
2023/10/16 20:42:07;;;;;;;4.53;2.45;;;;;;;5.94;62.95;100393.75;10402418;28;20053;-59
2023/10/16 20:47:09;;;;;;;5.82;2.85;;;;;;;5.82;63.11;100398.50;10389597;28;20509;-59
2023/10/16 20:52:12;;;;;;;4.95;2.47;;;;;;;5.67;63.88;100402.44;10422786;28;20125;-59
2023/10/16 20:57:14;;;;;;;5.28;2.60;;;;;;;5.67;63.88;100410.22;10403293;28;20049;-59
2023/10/16 21:02:16;;;;;;;5.95;2.65;;;;;;;5.65;63.80;100404.25;10421798;28;20048;-59
2023/10/16 21:07:18;;;;;;;4.95;2.63;;;;;;;5.62;64.03;100399.13;10421249;28;20028;-59
2023/10/16 21:12:21;;;;;;;4.90;2.65;;;;;;;5.69;63.73;100395.47;10420067;28;20041;-59
2023/10/16 21:17:23;;;;;;;5.95;2.97;;;;;;;5.76;63.44;100398.72;10406760;28;20410;-59
2023/10/16 21:22:28;;;;;;;4.82;2.80;;;;;;;5.75;63.40;100402.19;10422357;28;20045;-59
2023/10/16 21:27:30;;;;;;;4.68;2.63;;;;;;;5.78;63.39;100413.31;10423326;28;20501;-59
2023/10/16 21:32:37;;;;;;;5.80;2.80;;;;;;;5.89;63.37;100400.00;10420921;28;20053;-59
2023/10/16 21:37:39;;;;;;;6.97;2.88;;;;;;;5.97;63.14;100391.06;10420671;28;20063;-59
2023/10/16 21:42:42;;;;;;;6.43;2.65;;;;;;;5.78;63.20;100384.75;10422797;28;20497;-59
2023/10/16 21:47:44;;;;;;;5.55;3.00;;;;;;;5.60;63.46;100387.97;10405047;28;20202;-59
2023/10/16 21:52:46;;;;;;;4.95;2.45;;;;;;;5.59;63.75;100382.84;10421887;28;20496;-59
2023/10/16 21:57:48;;;;;;;7.38;3.00;;;;;;;5.53;63.61;100376.09;10405626;28;20040;-59
2023/10/16 22:02:50;;;;;;;5.20;2.60;;;;;;;5.44;64.06;100376.38;10399861;28;20056;-59
2023/10/16 22:07:52;;;;;;;5.85;2.47;;;;;;;5.48;64.07;100375.38;10420916;28;20052;-59
2023/10/16 22:12:54;;;;;;;6.25;3.05;;;;;;;5.43;63.94;100367.75;10419649;28;20048;-59
2023/10/16 22:17:56;;;;;;;8.85;3.45;;;;;;;5.40;64.14;100354.03;10421070;28;20029;-59
2023/10/16 22:22:59;;;;;;;6.65;3.28;;;;;;;5.40;64.15;100352.28;10425975;28;20052;-59
2023/10/16 22:28:02;;;;;;;6.63;3.05;;;;;;;5.50;64.23;100356.28;10429766;28;20525;-59
2023/10/16 22:33:04;;;;;;;5.70;3.00;;;;;;;5.65;63.91;100351.50;10429931;28;20105;-59
2023/10/16 22:38:07;;;;;;;4.40;2.35;;;;;;;5.64;63.78;100353.22;10428990;28;20485;-59
2023/10/16 22:43:08;;;;;;;4.35;2.30;;;;;;;5.57;63.60;100350.91;10444018;28;20040;-59
2023/10/16 22:48:10;;;;;;;5.05;2.80;;;;;;;5.40;63.50;100356.63;10429581;28;20080;-59
2023/10/16 22:53:14;;;;;;;8.70;3.30;;;;;;;5.20;63.86;100354.69;10428171;28;20037;-59
2023/10/16 22:58:16;;;;;;;4.70;2.58;;;;;;;5.19;64.16;100349.50;10409800;28;20053;-59
2023/10/16 23:03:19;;;;;;;7.97;2.88;;;;;;;5.10;64.03;100342.91;10429424;28;20461;-59
2023/10/16 23:08:23;;;;;;;4.60;2.35;;;;;;;4.94;64.24;100348.59;10410827;28;20083;-59
2023/10/16 23:13:25;;;;;;;6.38;2.42;;;;;;;4.99;64.43;100357.06;10427620;28;20052;-59
2023/10/16 23:18:28;;;;;;;5.47;2.50;;;;;;;5.04;64.28;100355.19;10428348;28;20049;-59
2023/10/16 23:23:30;;;;;;;6.28;2.60;;;;;;;4.86;64.22;100351.38;10427046;28;20045;-59
2023/10/16 23:28:36;;;;;;;4.28;2.50;;;;;;;4.84;64.30;100349.75;10425863;28;20330;-59
2023/10/16 23:33:46;;;;;;;4.80;2.42;;;;;;;4.89;64.28;100340.09;10427290;28;20061;-59
2023/10/16 23:38:49;;;;;;;4.93;2.60;;;;;;;4.88;64.06;100331.50;10427068;28;20044;-59
2023/10/16 23:43:51;;;;;;;4.68;2.47;;;;;;;4.88;64.15;100328.91;10425957;28;20550;-59
2023/10/16 23:54:39;;;;;;;5.93;2.20;;;;;;;4.59;64.25;100306.44;10350395;28;20627;-59
2023/10/16 23:59:48;;;;;;;;;;;;;;;4.43;65.40;100320.69;10428428;28;20040;-59
